createdAt,value
2022-09-25T00:01:06.428Z,10.20
2022-09-25T00:03:33.549Z,10.10
2022-09-25T00:06:13.341Z,10.00
2022-09-25T00:08:40.472Z,9.90
2022-09-25T00:11:10.174Z,9.80
2022-09-25T00:13:37.395Z,9.90
2022-09-25T00:16:04.737Z,9.90
2022-09-25T00:18:50.534Z,9.70
2022-09-25T00:21:17.680Z,9.70
2022-09-25T00:23:45.345Z,9.60
2022-09-25T00:26:14.240Z,9.60
2022-09-25T00:28:42.554Z,9.80
2022-09-25T00:31:11.916Z,9.90
2022-09-25T00:33:38.939Z,9.80
2022-09-25T00:36:09.305Z,9.80
2022-09-25T00:38:37.969Z,9.80
2022-09-25T00:41:07.499Z,9.90
2022-09-25T00:43:42.437Z,9.60
2022-09-25T00:46:27.953Z,9.40
2022-09-25T00:49:05.097Z,9.20
2022-09-25T00:51:56.656Z,9.10
2022-09-25T00:54:31.746Z,9.10
2022-09-25T00:57:02.358Z,9.00
2022-09-25T00:59:34.626Z,9.10
2022-09-25T01:02:01.762Z,9.20
2022-09-25T01:04:32.824Z,9.30
2022-09-25T01:06:59.820Z,9.30
2022-09-25T01:09:27.682Z,9.20
2022-09-25T01:11:54.673Z,9.20
2022-09-25T01:14:21.923Z,9.20
2022-09-25T01:16:57.843Z,9.10
2022-09-25T01:19:38.681Z,9.10
2022-09-25T01:22:20.264Z,9.10
2022-09-25T01:24:56.178Z,9.30
2022-09-25T01:27:37.602Z,9.50
2022-09-25T01:30:16.605Z,9.30
2022-09-25T01:33:05.491Z,9.10
2022-09-25T01:35:59.708Z,9.00
2022-09-25T01:38:42.855Z,8.90
2022-09-25T01:41:33.282Z,9.00
2022-09-25T01:44:10.239Z,9.20
2022-09-25T01:46:42.395Z,9.30
2022-09-25T01:49:17.808Z,9.00
2022-09-25T01:51:49.759Z,8.90
2022-09-25T01:54:40.281Z,8.80
2022-09-25T01:57:26.156Z,8.90
2022-09-25T01:59:58.798Z,8.70
2022-09-25T02:02:34.606Z,8.60
2022-09-25T02:05:23.161Z,8.50
2022-09-25T02:07:58.524Z,8.40
2022-09-25T02:10:36.468Z,8.40
2022-09-25T02:13:13.700Z,8.40
2022-09-25T02:16:02.234Z,8.30
2022-09-25T02:18:48.305Z,8.20
2022-09-25T02:21:36.432Z,8.20
2022-09-25T02:24:22.962Z,8.20
2022-09-25T02:26:50.843Z,8.30
2022-09-25T02:29:18.363Z,8.10
2022-09-25T02:31:54.229Z,8.10
2022-09-25T02:34:22.231Z,8.00
2022-09-25T02:36:49.272Z,8.00
2022-09-25T02:39:19.586Z,8.20
2022-09-25T02:41:46.538Z,8.40
2022-09-25T02:44:36.469Z,8.40
2022-09-25T02:47:22.496Z,8.50
2022-09-25T02:50:10.463Z,8.60
2022-09-25T02:52:49.953Z,8.60
2022-09-25T02:55:36.970Z,8.90
2022-09-25T02:58:07.027Z,8.90
2022-09-25T03:00:37.590Z,8.70
2022-09-25T03:03:08.076Z,8.70
2022-09-25T03:05:36.548Z,8.60
2022-09-25T03:08:23.508Z,8.50
2022-09-25T03:10:50.320Z,8.30
2022-09-25T03:13:23.323Z,8.50
2022-09-25T03:15:59.858Z,8.40
2022-09-25T03:18:28.468Z,8.50
2022-09-25T03:20:55.481Z,8.70
2022-09-25T03:23:22.262Z,8.60
2022-09-25T03:25:50.240Z,8.20
2022-09-25T03:28:18.081Z,8.10
2022-09-25T03:30:45.745Z,8.10
2022-09-25T03:33:13.502Z,8.30
2022-09-25T03:35:40.715Z,8.30
2022-09-25T03:38:10.675Z,8.40
2022-09-25T03:40:37.534Z,8.40
2022-09-25T03:45:29.833Z,8.60
2022-09-25T03:47:56.753Z,8.20
2022-09-25T03:50:23.556Z,7.90
2022-09-25T03:52:50.414Z,7.80
2022-09-25T03:55:17.334Z,7.80
2022-09-25T03:57:44.103Z,7.80
2022-09-25T04:00:11.509Z,7.80
2022-09-25T04:02:41.375Z,7.80
2022-09-25T04:05:09.445Z,8.00
2022-09-25T04:07:36.377Z,8.20
2022-09-25T04:10:03.631Z,8.40
2022-09-25T04:12:30.450Z,8.20
2022-09-25T04:14:57.250Z,8.10
2022-09-25T04:17:23.983Z,8.40
2022-09-25T04:19:52.639Z,8.30
2022-09-25T04:22:19.599Z,8.00
2022-09-25T04:24:49.241Z,7.90
2022-09-25T04:27:19.221Z,7.90
2022-09-25T04:29:46.803Z,8.00
2022-09-25T04:32:33.349Z,7.90
2022-09-25T04:35:00.061Z,7.90
2022-09-25T04:37:27.205Z,8.40
2022-09-25T04:39:55.739Z,8.60
2022-09-25T04:42:24.738Z,8.50
2022-09-25T04:44:56.161Z,8.40
2022-09-25T04:47:25.019Z,8.40
2022-09-25T04:49:52.597Z,8.40
2022-09-25T04:52:20.328Z,8.20
2022-09-25T04:54:47.834Z,8.20
2022-09-25T04:57:38.755Z,8.50
2022-09-25T05:00:07.520Z,8.60
2022-09-25T05:02:34.666Z,8.80
2022-09-25T05:05:01.609Z,8.60
2022-09-25T05:07:28.594Z,8.40
2022-09-25T05:09:55.774Z,8.50
2022-09-25T05:12:22.498Z,8.90
2022-09-25T05:14:49.253Z,8.80
2022-09-25T05:17:16.067Z,8.60
2022-09-25T05:19:42.796Z,8.50
2022-09-25T05:22:09.601Z,8.60
2022-09-25T05:24:38.512Z,8.70
2022-09-25T05:27:05.569Z,8.90
2022-09-25T05:29:32.450Z,8.90
2022-09-25T05:31:59.738Z,8.90
2022-09-25T05:34:26.595Z,8.90
2022-09-25T05:36:53.525Z,9.00
2022-09-25T05:39:20.216Z,9.00
2022-09-25T05:41:46.932Z,9.00
2022-09-25T05:44:14.855Z,9.10
2022-09-25T05:46:42.235Z,9.30
2022-09-25T05:49:09.185Z,8.90
2022-09-25T05:51:35.975Z,8.80
2022-09-25T05:54:02.766Z,8.80
2022-09-25T05:56:29.612Z,8.80
2022-09-25T05:58:58.733Z,8.90
2022-09-25T06:01:26.126Z,9.00
2022-09-25T06:03:53.076Z,9.30
2022-09-25T06:06:27.281Z,9.20
2022-09-25T06:08:54.880Z,9.10
2022-09-25T06:11:22.353Z,9.10
2022-09-25T06:13:54.256Z,9.10
2022-09-25T06:16:21.384Z,9.30
2022-09-25T06:18:48.413Z,9.40
2022-09-25T06:21:15.196Z,9.40
2022-09-25T06:23:44.921Z,9.50
2022-09-25T06:26:12.562Z,9.70
2022-09-25T06:28:39.555Z,9.90
2022-09-25T06:31:06.419Z,9.90
2022-09-25T06:33:33.243Z,10.10
2022-09-25T06:36:00.723Z,10.20
2022-09-25T06:38:27.879Z,10.00
2022-09-25T06:40:59.324Z,9.80
2022-09-25T06:43:27.298Z,10.00
2022-09-25T06:45:54.125Z,10.00
2022-09-25T06:48:22.068Z,10.20
2022-09-25T06:50:55.105Z,10.40
2022-09-25T06:53:24.024Z,10.50
2022-09-25T06:55:51.108Z,10.60
2022-09-25T06:58:21.464Z,10.60
2022-09-25T07:00:49.670Z,10.20
2022-09-25T07:03:35.058Z,10.20
2022-09-25T07:06:03.567Z,10.30
2022-09-25T07:08:30.331Z,10.40
2022-09-25T07:10:58.642Z,10.40
2022-09-25T07:13:28.795Z,10.30
2022-09-25T07:16:00.957Z,10.30
2022-09-25T07:18:29.237Z,10.40
2022-09-25T07:21:07.890Z,10.50
2022-09-25T07:23:35.328Z,10.60
2022-09-25T07:26:22.798Z,10.60
2022-09-25T07:29:01.018Z,10.40
2022-09-25T07:31:30.249Z,10.50
2022-09-25T07:33:59.878Z,10.50
2022-09-25T07:36:26.835Z,10.80
2022-09-25T07:38:54.384Z,11.10
2022-09-25T07:41:22.777Z,11.20
2022-09-25T07:44:40.034Z,11.20
2022-09-25T07:46:44.623Z,11.40
2022-09-25T07:49:12.101Z,11.80
2022-09-25T07:51:39.157Z,12.20
2022-09-25T07:54:06.075Z,12.30
2022-09-25T07:56:34.545Z,12.50
2022-09-25T07:59:01.647Z,12.60
2022-09-25T08:01:28.472Z,12.90
2022-09-25T08:03:55.488Z,13.20
2022-09-25T08:06:22.187Z,13.30
2022-09-25T08:08:48.921Z,13.60
2022-09-25T08:11:17.634Z,13.70
2022-09-25T08:13:45.692Z,13.80
2022-09-25T08:16:17.901Z,13.80
2022-09-25T08:18:46.866Z,13.60
2022-09-25T08:21:15.842Z,13.60
2022-09-25T08:23:47.786Z,13.60
2022-09-25T08:26:16.542Z,13.70
2022-09-25T08:28:44.092Z,13.90
2022-09-25T08:31:11.362Z,13.80
2022-09-25T08:33:38.218Z,13.80
2022-09-25T08:36:05.870Z,13.80
2022-09-25T08:38:33.294Z,13.90
2022-09-25T08:41:09.424Z,13.90
2022-09-25T08:43:42.814Z,13.70
2022-09-25T08:46:41.627Z,13.70
2022-09-25T08:49:11.180Z,13.70
2022-09-25T08:51:45.410Z,13.60
2022-09-25T08:54:23.812Z,13.40
2022-09-25T08:56:58.125Z,13.40
2022-09-25T08:59:34.564Z,13.50
2022-09-25T09:02:10.676Z,13.40
2022-09-25T09:04:53.238Z,13.40
2022-09-25T09:07:42.579Z,13.50
2022-09-25T09:10:33.977Z,13.70
2022-09-25T09:13:20.477Z,13.90
2022-09-25T09:15:57.127Z,13.90
2022-09-25T09:18:31.972Z,14.00
2022-09-25T09:21:07.743Z,13.90
2022-09-25T09:23:45.095Z,13.80
2022-09-25T09:26:29.432Z,13.90
2022-09-25T09:29:20.507Z,13.70
2022-09-25T09:32:19.745Z,13.60
2022-09-25T09:35:07.017Z,13.60
2022-09-25T09:38:06.071Z,13.70
2022-09-25T09:40:51.800Z,13.70
2022-09-25T09:43:43.720Z,13.60
2022-09-25T09:46:18.308Z,13.70
2022-09-25T09:48:50.773Z,13.80
2022-09-25T09:51:32.997Z,13.80
2022-09-25T09:54:11.842Z,13.90
2022-09-25T09:56:44.457Z,13.90
2022-09-25T09:59:24.513Z,14.00
2022-09-25T10:02:23.689Z,14.20
2022-09-25T10:04:52.874Z,14.40
2022-09-25T10:07:22.697Z,14.60
2022-09-25T10:09:50.426Z,14.60
2022-09-25T10:12:30.543Z,14.90
2022-09-25T10:15:01.677Z,15.80
2022-09-25T10:17:29.738Z,17.50
2022-09-25T10:20:14.764Z,19.60
2022-09-25T10:22:45.545Z,18.70
2022-09-25T10:25:12.736Z,18.10
2022-09-25T10:27:48.327Z,16.90
2022-09-25T10:30:18.695Z,17.10
2022-09-25T10:33:03.425Z,17.20
2022-09-25T10:35:43.434Z,17.10
2022-09-25T10:38:31.177Z,17.20
2022-09-25T10:41:12.113Z,17.10
2022-09-25T10:44:00.010Z,17.00
2022-09-25T10:46:53.292Z,16.90
2022-09-25T10:49:40.004Z,16.60
2022-09-25T10:52:07.991Z,16.10
2022-09-25T10:54:41.895Z,15.70
2022-09-25T10:57:18.121Z,15.70
2022-09-25T10:59:50.569Z,15.90
2022-09-25T11:02:39.226Z,16.10
2022-09-25T11:05:15.588Z,16.40
2022-09-25T11:07:55.246Z,16.80
2022-09-25T11:10:47.496Z,16.40
2022-09-25T11:13:24.353Z,16.10
2022-09-25T11:15:56.542Z,16.10
2022-09-25T11:18:35.887Z,16.10
2022-09-25T11:21:04.556Z,16.10
2022-09-25T11:23:49.750Z,15.70
2022-09-25T11:26:21.946Z,15.90
2022-09-25T11:29:04.537Z,16.30
2022-09-25T11:31:50.160Z,16.60
2022-09-25T11:34:36.604Z,16.90
2022-09-25T11:37:10.953Z,16.60
2022-09-25T11:40:25.768Z,16.70
2022-09-25T11:43:08.630Z,17.30
2022-09-25T11:45:47.539Z,17.30
2022-09-25T11:48:23.306Z,17.10
2022-09-25T11:51:24.298Z,16.70
2022-09-25T11:54:25.350Z,16.80
2022-09-25T11:56:59.801Z,16.90
2022-09-25T12:00:00.963Z,17.00
2022-09-25T12:02:49.943Z,17.10
2022-09-25T12:05:35.090Z,16.80
2022-09-25T12:08:23.351Z,16.90
2022-09-25T12:11:18.061Z,17.30
2022-09-25T12:14:16.546Z,17.30
2022-09-25T12:17:06.674Z,16.90
2022-09-25T12:20:01.869Z,16.40
2022-09-25T12:23:08.892Z,15.70
2022-09-25T12:25:58.412Z,15.60
2022-09-25T12:28:29.368Z,15.50
2022-09-25T12:31:08.025Z,15.50
2022-09-25T12:33:50.685Z,15.50
2022-09-25T12:36:38.826Z,15.40
2022-09-25T12:39:37.736Z,15.20
2022-09-25T12:42:10.718Z,15.20
2022-09-25T12:44:47.176Z,15.00
2022-09-25T12:47:24.095Z,15.00
2022-09-25T12:50:21.545Z,14.80
2022-09-25T12:53:10.378Z,14.80
2022-09-25T12:55:40.402Z,14.80
2022-09-25T12:58:22.097Z,14.80
2022-09-25T13:01:01.507Z,14.70
2022-09-25T13:03:46.705Z,14.60
2022-09-25T13:06:35.770Z,14.70
2022-09-25T13:09:20.956Z,14.70
2022-09-25T13:12:09.081Z,14.70
2022-09-25T13:14:43.091Z,14.70
2022-09-25T13:17:19.044Z,14.60
2022-09-25T13:19:47.127Z,14.50
2022-09-25T13:22:22.003Z,14.30
2022-09-25T13:24:55.902Z,14.30
2022-09-25T13:27:37.665Z,14.10
2022-09-25T13:30:07.102Z,14.10
2022-09-25T13:32:39.536Z,14.00
2022-09-25T13:35:21.377Z,14.00
2022-09-25T13:37:53.524Z,14.00
2022-09-25T13:40:43.116Z,14.00
2022-09-25T13:43:25.745Z,14.00
2022-09-25T13:46:26.388Z,14.00
2022-09-25T13:48:56.660Z,13.90
2022-09-25T13:51:24.295Z,14.00
2022-09-25T13:54:02.893Z,14.00
2022-09-25T13:56:42.357Z,13.90
2022-09-25T13:59:14.247Z,13.70
2022-09-25T14:01:51.844Z,13.50
2022-09-25T14:04:36.591Z,13.50
2022-09-25T14:07:13.455Z,13.50
2022-09-25T14:09:48.078Z,13.60
2022-09-25T14:12:24.677Z,13.70
2022-09-25T14:14:58.303Z,13.70
2022-09-25T14:17:32.895Z,13.60
2022-09-25T14:20:04.019Z,13.60
2022-09-25T14:22:46.939Z,13.50
2022-09-25T14:25:40.317Z,13.60
2022-09-25T14:28:36.919Z,13.60
2022-09-25T14:31:42.824Z,13.60
2022-09-25T14:34:44.624Z,13.50
2022-09-25T14:37:37.354Z,13.70
2022-09-25T14:40:20.392Z,13.80
2022-09-25T14:43:16.846Z,13.70
2022-09-25T14:46:11.937Z,14.00
2022-09-25T14:48:54.948Z,14.20
2022-09-25T14:51:34.336Z,14.40
2022-09-25T14:54:05.112Z,14.30
2022-09-25T14:56:34.343Z,14.50
2022-09-25T14:59:16.081Z,14.40
2022-09-25T15:01:48.644Z,14.20
2022-09-25T15:04:31.596Z,14.20
2022-09-25T15:07:13.187Z,14.20
2022-09-25T15:09:51.275Z,14.10
2022-09-25T15:12:18.323Z,13.90
2022-09-25T15:15:10.512Z,14.00
2022-09-25T15:17:59.287Z,14.00
2022-09-25T15:20:34.733Z,13.90
2022-09-25T15:23:06.528Z,13.90
2022-09-25T15:25:44.040Z,13.80
2022-09-25T15:28:20.115Z,13.80
2022-09-25T15:30:59.768Z,13.60
2022-09-25T15:33:34.050Z,13.50
2022-09-25T15:36:16.778Z,13.40
2022-09-25T15:38:44.651Z,13.30
2022-09-25T15:41:17.820Z,13.30
2022-09-25T15:43:44.885Z,13.30
2022-09-25T15:46:14.858Z,13.20
2022-09-25T15:48:52.932Z,13.30
2022-09-25T15:51:29.625Z,13.10
2022-09-25T15:54:26.044Z,13.10
2022-09-25T15:56:57.721Z,13.00
2022-09-25T15:59:59.908Z,13.00
2022-09-25T16:02:51.977Z,13.00
2022-09-25T16:05:24.369Z,13.00
2022-09-25T16:07:52.334Z,13.00
2022-09-25T16:10:19.905Z,13.00
2022-09-25T16:12:52.709Z,12.90
2022-09-25T16:15:32.348Z,12.80
2022-09-25T16:18:05.676Z,12.80
2022-09-25T16:20:36.380Z,12.70
2022-09-25T16:23:07.568Z,12.70
2022-09-25T16:25:43.367Z,12.70
2022-09-25T16:28:29.256Z,12.80
2022-09-25T16:31:08.875Z,12.70
2022-09-25T16:33:43.736Z,12.70
2022-09-25T16:36:19.023Z,12.70
2022-09-25T16:39:02.866Z,12.70
2022-09-25T16:41:30.100Z,12.70
2022-09-25T16:44:15.149Z,12.60
2022-09-25T16:46:44.118Z,12.70
2022-09-25T16:49:12.753Z,12.60
2022-09-25T16:51:45.630Z,12.50
2022-09-25T16:54:18.481Z,12.30
2022-09-25T16:56:48.120Z,12.40
2022-09-25T16:59:24.419Z,12.30
2022-09-25T17:01:53.341Z,12.30
2022-09-25T17:04:23.854Z,12.20
2022-09-25T17:06:50.790Z,12.20
2022-09-25T17:09:18.497Z,12.20
2022-09-25T17:11:48.199Z,12.20
2022-09-25T17:14:30.189Z,12.20
2022-09-25T17:17:03.187Z,12.10
2022-09-25T17:19:42.922Z,12.10
2022-09-25T17:22:10.593Z,12.10
2022-09-25T17:24:38.118Z,12.10
2022-09-25T17:27:16.790Z,12.00
2022-09-25T17:29:48.198Z,12.00
2022-09-25T17:32:17.923Z,12.10
2022-09-25T17:34:51.789Z,12.10
2022-09-25T17:37:19.359Z,12.10
2022-09-25T17:39:46.471Z,12.10
2022-09-25T17:42:13.406Z,12.10
2022-09-25T17:44:42.853Z,12.10
2022-09-25T17:47:10.879Z,12.00
2022-09-25T17:49:37.789Z,12.00
2022-09-25T17:52:05.082Z,12.00
2022-09-25T17:54:32.297Z,12.10
2022-09-25T17:56:59.331Z,12.00
2022-09-25T17:59:26.189Z,12.00
2022-09-25T18:01:53.204Z,11.90
2022-09-25T18:04:25.606Z,11.90
2022-09-25T18:06:52.930Z,11.90
2022-09-25T18:09:20.263Z,11.80
2022-09-25T18:11:47.968Z,11.80
2022-09-25T18:14:16.232Z,11.80
2022-09-25T18:16:44.736Z,11.70
2022-09-25T18:19:37.996Z,11.70
2022-09-25T18:22:17.712Z,11.80
2022-09-25T18:24:46.051Z,11.80
2022-09-25T18:27:15.264Z,11.80
2022-09-25T18:29:42.273Z,11.90
2022-09-25T18:32:09.154Z,11.90
2022-09-25T18:34:36.181Z,11.90
2022-09-25T18:37:03.133Z,11.80
2022-09-25T18:39:30.547Z,11.90
2022-09-25T18:41:57.531Z,11.90
2022-09-25T18:44:24.653Z,11.90
2022-09-25T18:46:52.903Z,11.90
2022-09-25T18:49:19.940Z,11.90
2022-09-25T18:51:46.895Z,11.90
2022-09-25T18:54:15.163Z,11.80
2022-09-25T18:56:42.541Z,11.80
2022-09-25T18:59:09.835Z,11.80
2022-09-25T19:01:38.593Z,11.70
2022-09-25T19:04:06.867Z,11.70
2022-09-25T19:06:34.368Z,11.70
2022-09-25T19:09:01.386Z,11.80
2022-09-25T19:11:28.994Z,11.80
2022-09-25T19:13:56.581Z,11.70
2022-09-25T19:16:24.249Z,11.70
2022-09-25T19:18:51.548Z,11.60
2022-09-25T19:21:26.775Z,11.60
2022-09-25T19:23:54.699Z,11.70
2022-09-25T19:26:26.506Z,11.60
2022-09-25T19:28:55.182Z,11.60
2022-09-25T19:31:30.237Z,11.70
2022-09-25T19:34:28.071Z,11.70
2022-09-25T19:36:56.601Z,11.80
2022-09-25T19:39:25.052Z,11.80
2022-09-25T19:41:53.142Z,11.70
2022-09-25T19:44:21.174Z,11.70
2022-09-25T19:46:48.676Z,11.80
2022-09-25T19:49:17.831Z,11.70
2022-09-25T19:51:46.001Z,11.70
2022-09-25T19:54:15.811Z,11.70
2022-09-25T19:56:43.506Z,11.70
2022-09-25T19:59:15.579Z,11.70
2022-09-25T20:01:44.303Z,11.70
2022-09-25T20:04:18.309Z,11.80
2022-09-25T20:06:46.857Z,11.80
2022-09-25T20:09:14.824Z,11.70
2022-09-25T20:11:42.667Z,11.70
2022-09-25T20:14:13.709Z,11.60
2022-09-25T20:16:41.383Z,11.70
2022-09-25T20:19:11.809Z,11.60
2022-09-25T20:21:41.789Z,11.60
2022-09-25T20:24:09.710Z,11.50
2022-09-25T20:26:38.183Z,11.60
2022-09-25T20:29:09.342Z,11.60
2022-09-25T20:31:38.518Z,11.50
2022-09-25T20:34:06.993Z,11.50
2022-09-25T20:36:35.362Z,11.50
2022-09-25T20:39:03.243Z,11.50
2022-09-25T20:44:38.828Z,11.40
2022-09-25T20:47:05.620Z,11.60
2022-09-25T20:49:32.608Z,11.50
2022-09-25T20:52:00.162Z,11.30
2022-09-25T20:54:27.098Z,11.20
2022-09-25T20:56:53.891Z,11.20
2022-09-25T20:59:21.013Z,11.10
2022-09-25T21:01:48.040Z,11.30
2022-09-25T21:04:18.414Z,11.30
2022-09-25T21:06:46.330Z,11.20
2022-09-25T21:09:21.996Z,11.40
2022-09-25T21:11:52.122Z,11.40
2022-09-25T21:14:25.477Z,11.30
2022-09-25T21:16:53.791Z,11.30
2022-09-25T21:19:23.569Z,11.30
2022-09-25T21:21:51.229Z,11.20
2022-09-25T21:24:21.475Z,11.30
2022-09-25T21:26:48.965Z,11.30
2022-09-25T21:29:17.791Z,11.20
2022-09-25T21:31:49.737Z,11.20
2022-09-25T21:34:18.894Z,11.30
2022-09-25T21:36:46.622Z,11.20
2022-09-25T21:39:14.388Z,11.20
2022-09-25T21:41:41.361Z,11.10
2022-09-25T21:44:13.181Z,11.20
2022-09-25T21:46:40.701Z,11.30
2022-09-25T21:49:08.403Z,11.10
2022-09-25T21:51:43.550Z,11.10
2022-09-25T21:54:12.642Z,11.10
2022-09-25T21:56:40.200Z,11.00
2022-09-25T21:59:10.655Z,11.10
2022-09-25T22:01:40.706Z,11.10
2022-09-25T22:04:14.212Z,11.00
2022-09-25T22:06:47.436Z,11.10
2022-09-25T22:09:18.133Z,11.00
2022-09-25T22:11:49.083Z,11.00
2022-09-25T22:14:20.889Z,11.10
2022-09-25T22:16:50.825Z,11.10
2022-09-25T22:19:29.906Z,11.00
2022-09-25T22:21:58.953Z,11.10
2022-09-25T22:24:26.854Z,11.10
2022-09-25T22:26:57.065Z,10.90
2022-09-25T22:29:25.035Z,10.90
2022-09-25T22:31:53.409Z,10.80
2022-09-25T22:34:24.485Z,10.90
2022-09-25T22:36:58.618Z,10.90
2022-09-25T22:39:27.042Z,10.90
2022-09-25T22:41:55.517Z,11.00
2022-09-25T22:44:23.121Z,11.10
2022-09-25T22:46:50.866Z,11.00
2022-09-25T22:49:21.453Z,10.80
2022-09-25T22:51:51.423Z,10.90
2022-09-25T22:54:19.122Z,10.90
2022-09-25T22:56:46.598Z,10.80
2022-09-25T22:59:19.368Z,10.70
2022-09-25T23:01:53.141Z,10.80
2022-09-25T23:04:23.290Z,10.80
2022-09-25T23:06:51.343Z,10.60
2022-09-25T23:09:21.281Z,10.70
2022-09-25T23:11:48.784Z,10.60
2022-09-25T23:14:19.778Z,10.60
2022-09-25T23:16:48.554Z,10.60
2022-09-25T23:19:16.388Z,10.50
2022-09-25T23:21:44.194Z,10.40
2022-09-25T23:24:14.564Z,10.60
2022-09-25T23:26:42.348Z,10.50
2022-09-25T23:29:12.131Z,10.50
2022-09-25T23:31:40.364Z,10.60
2022-09-25T23:34:10.088Z,10.60
2022-09-25T23:36:37.711Z,10.40
2022-09-25T23:39:07.485Z,10.60
2022-09-25T23:41:39.687Z,10.50
2022-09-25T23:44:09.789Z,10.50
2022-09-25T23:46:41.600Z,10.40
2022-09-25T23:49:11.824Z,10.70
2022-09-25T23:51:40.067Z,10.60
2022-09-25T23:54:08.205Z,10.50
2022-09-25T23:56:36.276Z,10.60
2022-09-25T23:59:07.058Z,10.50
